Air Resources Laboratory banner image
Air Resources Laboratory web site National Oceanic and Atmospheric Administration (NOAA)

vt metar


K1V4 231754Z AUTO 24/11 A2984 RMK AO1 SLP098 T02390111 10239 20128 56009=
KBTV 231754Z 34013KT 10SM SCT050 SCT110 24/12 A2989 RMK AO2 SLP122 ACSL ALQDS
 T02390117 10244 20156 55003=
KDDH 231754Z AUTO VRB05KT 10SM CLR 23/14 A2993 RMK AO2 SLP133 T02330139 10233
 20144 58009=
KEFK 231755Z AUTO 33013G18KT 270V340 10SM SCT110 19/12 A2991 RMK AO2 T01910124
 10196 20133=
KMPV 231751Z AUTO 33013G22KT 10SM FEW060 23/11 A2992 RMK AO2 SLP131 T02280111
 10228 20133 56006=
KMVL 231754Z AUTO 35008KT 10SM BKN047 BKN055 BKN100 22/11 A2990 RMK AO2 SLP125
 T02170111 10222 20122 55001=
KRUT 231756Z AUTO 26008KT 10SM FEW055 24/12 A2989 RMK AO2 SLP136 T02390122
 10239 20139 58016 $=
KVSF 231754Z AUTO 26015G21KT 10SM CLR 26/11 A2988 RMK AO2 SLP118 T02560106
 10256 20161 56008=